Time;durP1;ratioP1;P1;durP2;ratioP2;P2;SDS_P1;SDS_P2;PMS_P1;PMS_P2;Temp;Humidity;BMP_temperature;BMP_pressure;BME280_temperature;BME280_humidity;BME280_pressure;Samples;Min_cycle;Max_cycle;Signal;HPM_P1;HPM_P2
2022/06/25 00:01:20;;;;;;;30.73;16.98;;;17.90;99.90;;;;;;5073065;28;20052;-78
2022/06/25 00:03:46;;;;;;;26.98;17.27;;;17.80;99.90;;;;;;5072944;28;20384;-78
2022/06/25 00:06:12;;;;;;;27.63;17.25;;;17.80;99.90;;;;;;5074597;28;20036;-78
2022/06/25 00:08:39;;;;;;;27.85;17.15;;;17.80;99.90;;;;;;5079698;28;20094;-78
2022/06/25 00:11:05;;;;;;;28.05;16.38;;;17.80;99.90;;;;;;5062112;28;20060;-78
2022/06/25 00:13:31;;;;;;;26.98;15.60;;;17.80;99.90;;;;;;5074708;28;20067;-78
2022/06/25 00:15:57;;;;;;;26.87;16.90;;;17.80;99.90;;;;;;5073200;28;20048;-79
2022/06/25 00:18:23;;;;;;;26.88;17.38;;;17.80;99.90;;;;;;5072527;28;20056;-77
2022/06/25 00:20:49;;;;;;;25.90;16.40;;;17.70;99.90;;;;;;5072237;28;20053;-76
2022/06/25 00:23:15;;;;;;;31.10;17.27;;;17.70;99.90;;;;;;5071285;28;20055;-77
2022/06/25 00:25:41;;;;;;;25.37;16.70;;;17.70;99.90;;;;;;5072916;28;20047;-77
2022/06/25 00:28:07;;;;;;;27.13;17.63;;;17.70;99.90;;;;;;5071638;28;20040;-77
2022/06/25 00:30:33;;;;;;;27.80;17.13;;;17.70;99.90;;;;;;5073172;28;20055;-77
2022/06/25 00:33:00;;;;;;;27.88;17.15;;;17.60;99.90;;;;;;5073204;28;20071;-79
2022/06/25 00:35:26;;;;;;;26.60;16.55;;;17.60;99.90;;;;;;5073796;28;20048;-78
2022/06/25 00:37:52;;;;;;;27.40;16.05;;;17.60;99.90;;;;;;5072603;28;20045;-77
2022/06/25 00:40:18;;;;;;;28.45;17.00;;;17.60;99.90;;;;;;5073695;28;20143;-79
2022/06/25 00:42:45;;;;;;;29.50;16.43;;;17.60;99.90;;;;;;5072030;28;20488;-76
2022/06/25 00:45:12;;;;;;;26.92;17.05;;;17.50;99.90;;;;;;5073378;28;20059;-77
2022/06/25 00:47:37;;;;;;;27.15;16.75;;;17.50;99.90;;;;;;5071736;28;20540;-77
2022/06/25 00:50:04;;;;;;;25.43;16.73;;;17.50;99.90;;;;;;5070945;28;20094;-77
2022/06/25 00:52:33;;;;;;;31.98;16.17;;;17.40;99.90;;;;;;5072161;28;20123;-77
2022/06/25 00:55:06;;;;;;;24.55;14.85;;;17.40;99.90;;;;;;5071204;28;20140;-77
2022/06/25 00:57:34;;;;;;;25.73;15.02;;;17.40;99.90;;;;;;5074826;28;20106;-78
2022/06/25 01:00:09;;;;;;;25.10;14.63;;;17.40;99.90;;;;;;5073079;28;20056;-79
2022/06/25 01:02:35;;;;;;;26.33;15.70;;;17.30;99.90;;;;;;5072199;28;20500;-78
2022/06/25 01:05:08;;;;;;;27.08;14.82;;;17.30;99.90;;;;;;5054519;28;20071;-78
2022/06/25 01:07:35;;;;;;;24.83;15.25;;;17.30;99.90;;;;;;5074410;28;20036;-78
2022/06/25 01:10:01;;;;;;;;;;;17.20;99.90;;;;;;5071868;28;20552;-78
2022/06/25 01:12:27;;;;;;;25.23;14.50;;;17.20;99.90;;;;;;5071640;28;20361;-78
2022/06/25 01:15:03;;;;;;;29.67;16.27;;;17.10;99.90;;;;;;5074228;28;20056;-77
2022/06/25 01:17:29;;;;;;;26.25;15.48;;;17.10;99.90;;;;;;5060269;28;20087;-78
2022/06/25 01:19:55;;;;;;;26.77;16.00;;;17.10;99.90;;;;;;5110146;28;20159;-77
2022/06/25 01:22:21;;;;;;;24.63;15.90;;;17.10;99.90;;;;;;5077941;28;20075;-77
2022/06/25 01:24:47;;;;;;;25.42;16.48;;;17.00;99.90;;;;;;5077035;28;20477;-78
2022/06/25 01:27:16;;;;;;;31.38;16.83;;;17.00;99.90;;;;;;5076980;28;20036;-77
2022/06/25 01:29:43;;;;;;;28.65;17.52;;;17.00;99.90;;;;;;5078958;28;20045;-77
2022/06/25 01:32:12;;;;;;;26.70;16.58;;;17.00;99.90;;;;;;5077750;28;20167;-76
2022/06/25 01:34:38;;;;;;;31.02;17.27;;;17.00;99.90;;;;;;5077109;28;20079;-78
2022/06/25 01:37:04;;;;;;;29.67;16.57;;;17.00;99.90;;;;;;5079772;28;20056;-78
2022/06/25 01:39:29;;;;;;;29.40;16.65;;;17.00;99.90;;;;;;5083174;28;20048;-77
2022/06/25 01:41:55;;;;;;;26.93;16.60;;;16.90;99.90;;;;;;5081446;28;20130;-78
2022/06/25 01:44:20;;;;;;;26.00;16.30;;;16.90;99.90;;;;;;5080042;28;20106;-78
2022/06/25 01:46:46;;;;;;;27.15;16.88;;;16.90;99.90;;;;;;5085622;28;20124;-78
2022/06/25 01:49:12;;;;;;;32.50;17.83;;;16.90;99.90;;;;;;5086600;28;20080;-78
2022/06/25 01:51:38;;;;;;;30.50;16.90;;;16.90;99.90;;;;;;5078888;28;20048;-79
2022/06/25 01:54:03;;;;;;;32.28;17.88;;;16.90;99.90;;;;;;5082299;28;20052;-78
2022/06/25 01:56:29;;;;;;;29.13;17.57;;;16.90;99.90;;;;;;5082648;28;20097;-77
2022/06/25 01:58:55;;;;;;;29.33;16.70;;;16.90;99.90;;;;;;5081192;28;20046;-80
2022/06/25 02:01:20;;;;;;;31.73;17.80;;;16.90;99.90;;;;;;5078242;28;20049;-79
2022/06/25 02:03:46;;;;;;;30.50;17.13;;;16.90;99.90;;;;;;5077904;28;20114;-79
2022/06/25 02:06:12;;;;;;;30.83;19.10;;;16.90;99.90;;;;;;5060231;28;20052;-78
2022/06/25 02:08:38;;;;;;;31.83;18.13;;;16.90;99.90;;;;;;5077466;28;20063;-78
2022/06/25 02:11:06;;;;;;;28.90;18.02;;;16.90;99.90;;;;;;5076453;28;20044;-77
2022/06/25 02:13:33;;;;;;;26.83;18.13;;;16.90;99.90;;;;;;5075661;28;20055;-78
2022/06/25 02:16:00;;;;;;;29.95;19.23;;;17.00;99.90;;;;;;5079099;28;20044;-78
2022/06/25 02:18:26;;;;;;;29.25;18.35;;;16.90;99.90;;;;;;5078196;28;20154;-77
2022/06/25 02:20:52;;;;;;;30.77;18.38;;;16.90;99.90;;;;;;5078375;28;20048;-79
2022/06/25 02:23:19;;;;;;;29.63;18.75;;;16.90;99.90;;;;;;5079944;28;20068;-78
2022/06/25 02:25:45;;;;;;;30.02;18.38;;;16.80;99.90;;;;;;5079439;28;20102;-78
2022/06/25 02:28:11;;;;;;;28.60;18.23;;;16.80;99.90;;;;;;5082446;28;20045;-76
2022/06/25 02:30:37;;;;;;;28.90;18.08;;;16.90;99.90;;;;;;5086348;28;20354;-78
2022/06/25 02:33:07;;;;;;;30.00;17.77;;;16.80;99.90;;;;;;5082592;28;20083;-78
2022/06/25 02:35:32;;;;;;;31.80;18.60;;;16.90;99.90;;;;;;5086559;28;20044;-79
2022/06/25 02:37:58;;;;;;;31.47;17.73;;;16.90;99.90;;;;;;5084362;28;20045;-79
2022/06/25 02:40:24;;;;;;;30.50;18.50;;;16.90;99.90;;;;;;5088347;28;20044;-80
2022/06/25 02:42:49;;;;;;;31.10;18.33;;;16.80;99.90;;;;;;5074110;28;20060;-78
2022/06/25 02:45:15;;;;;;;31.87;18.20;;;16.80;99.90;;;;;;5065793;28;20136;-77
2022/06/25 02:47:41;;;;;;;31.55;18.25;;;16.70;99.90;;;;;;5083790;28;20052;-77
2022/06/25 02:50:09;;;;;;;29.02;17.80;;;16.70;99.90;;;;;;5115471;28;20121;-77
2022/06/25 02:52:36;;;;;;;28.63;18.17;;;16.70;99.90;;;;;;5083179;28;20109;-76
2022/06/25 02:55:02;;;;;;;30.60;17.93;;;16.70;99.90;;;;;;5083246;28;20045;-77
2022/06/25 03:00:13;;;;;;;28.63;17.35;;;16.60;99.90;;;;;;5080577;28;20579;-80
2022/06/25 03:02:39;;;;;;;28.63;17.08;;;16.60;99.90;;;;;;5085796;28;20063;-79
2022/06/25 03:05:05;;;;;;;31.17;17.93;;;16.60;99.90;;;;;;5083405;28;20365;-77
2022/06/25 03:07:31;;;;;;;32.13;16.77;;;16.60;99.90;;;;;;5085500;28;20048;-78
2022/06/25 03:09:56;;;;;;;29.30;17.77;;;16.60;99.90;;;;;;5082565;28;20098;-78
2022/06/25 03:12:22;;;;;;;33.50;17.90;;;16.50;99.90;;;;;;5082990;28;20051;-81
2022/06/25 03:14:49;;;;;;;28.23;17.77;;;16.40;99.90;;;;;;5067481;28;20037;-80
2022/06/25 03:17:24;;;;;;;33.20;16.77;;;16.40;99.90;;;;;;5068652;28;20530;-78
2022/06/25 03:19:50;;;;;;;27.10;16.90;;;16.40;99.90;;;;;;5085501;28;20080;-77
2022/06/25 03:22:15;;;;;;;31.57;17.60;;;16.50;99.90;;;;;;5085182;28;20048;-78
2022/06/25 03:24:41;;;;;;;32.37;17.50;;;16.40;99.90;;;;;;5049407;28;20104;-79
2022/06/25 03:27:07;;;;;;;27.80;16.83;;;16.40;99.90;;;;;;5047224;28;20120;-78
2022/06/25 03:29:33;;;;;;;29.20;16.37;;;16.50;99.90;;;;;;5076241;28;20542;-78
2022/06/25 03:31:58;;;;;;;29.43;16.20;;;16.40;99.90;;;;;;5080507;28;20153;-80
2022/06/25 03:34:24;;;;;;;29.52;17.17;;;16.40;99.90;;;;;;5085906;28;20044;-78
2022/06/25 03:36:50;;;;;;;27.38;16.15;;;16.40;99.90;;;;;;5085262;28;20059;-80
2022/06/25 03:39:16;;;;;;;31.03;17.00;;;16.40;99.90;;;;;;5081705;28;20055;-79
2022/06/25 03:41:42;;;;;;;25.55;15.57;;;16.40;99.90;;;;;;5081196;28;20041;-81
2022/06/25 03:44:11;;;;;;;27.77;16.90;;;16.40;99.90;;;;;;5082073;28;20039;-79
2022/06/25 03:46:38;;;;;;;28.50;16.20;;;16.40;99.90;;;;;;5082972;28;20124;-81
2022/06/25 03:49:04;;;;;;;28.60;14.95;;;16.50;99.90;;;;;;5082805;28;20062;-77
2022/06/25 03:51:31;;;;;;;29.10;15.43;;;16.50;99.90;;;;;;5077121;28;20119;-76
2022/06/25 03:53:57;;;;;;;23.52;15.23;;;16.50;99.90;;;;;;5080789;28;20052;-78
2022/06/25 03:56:23;;;;;;;23.83;15.37;;;16.60;99.90;;;;;;5080495;28;20100;-80
2022/06/25 03:58:49;;;;;;;25.50;15.27;;;16.80;99.90;;;;;;5079365;28;20102;-80
2022/06/25 04:01:15;;;;;;;31.27;15.35;;;16.80;99.90;;;;;;5081036;28;20068;-79
2022/06/25 04:03:41;;;;;;;27.50;15.43;;;16.80;99.90;;;;;;5080432;28;20037;-79
2022/06/25 04:06:08;;;;;;;26.90;14.43;;;16.80;99.90;;;;;;5079287;28;20558;-79
2022/06/25 04:08:34;;;;;;;29.80;15.35;;;16.80;99.90;;;;;;5062169;28;20036;-78
2022/06/25 04:11:00;;;;;;;24.57;15.17;;;16.80;99.90;;;;;;5077693;28;20114;-79
2022/06/25 04:13:26;;;;;;;25.77;15.10;;;16.80;99.90;;;;;;5074904;28;20051;-80
2022/06/25 04:15:52;;;;;;;22.88;14.50;;;16.80;99.90;;;;;;5079332;28;20076;-80
2022/06/25 04:18:18;;;;;;;25.40;14.95;;;16.90;99.90;;;;;;5078797;28;20140;-79
2022/06/25 04:20:44;;;;;;;28.23;14.40;;;17.00;99.90;;;;;;5077486;28;20084;-80
2022/06/25 04:23:10;;;;;;;25.77;14.20;;;17.00;99.90;;;;;;5076361;28;20416;-81
2022/06/25 04:25:36;;;;;;;25.27;14.13;;;17.00;99.90;;;;;;5075905;28;20048;-79
2022/06/25 04:30:47;;;;;;;23.60;13.52;;;17.10;99.90;;;;;;5076217;28;20608;-81
2022/06/25 04:33:13;;;;;;;24.17;14.00;;;17.10;99.90;;;;;;5078284;28;20050;-79
2022/06/25 04:35:38;;;;;;;24.90;13.93;;;17.10;99.90;;;;;;5077791;28;20105;-79
2022/06/25 04:38:04;;;;;;;25.77;13.67;;;17.20;99.90;;;;;;5076558;28;20048;-78
2022/06/25 04:40:30;;;;;;;25.95;13.40;;;17.20;99.90;;;;;;5072114;28;20502;-79
2022/06/25 04:42:56;;;;;;;28.17;14.37;;;17.20;99.90;;;;;;5077269;28;20053;-81
2022/06/25 04:45:22;;;;;;;21.87;13.30;;;17.20;99.90;;;;;;5073270;28;20407;-79
2022/06/25 04:47:47;;;;;;;22.70;13.90;;;17.30;99.90;;;;;;5057833;28;20155;-78
2022/06/25 04:50:13;;;;;;;24.03;13.03;;;17.30;99.90;;;;;;5079903;28;20048;-80
2022/06/25 04:52:39;;;;;;;26.00;13.30;;;17.30;99.90;;;;;;5080403;28;20044;-80
2022/06/25 04:55:05;;;;;;;21.70;13.13;;;17.40;99.90;;;;;;5078174;28;20048;-80
2022/06/25 04:57:31;;;;;;;20.08;12.13;;;17.40;99.90;;;;;;5078597;28;20045;-80
2022/06/25 04:59:57;;;;;;;26.17;13.20;;;17.40;99.90;;;;;;5078463;28;20067;-80
2022/06/25 05:02:23;;;;;;;24.73;12.32;;;17.50;99.90;;;;;;5078660;28;20056;-79
2022/06/25 05:04:49;;;;;;;23.10;11.70;;;17.50;99.90;;;;;;5080445;28;20041;-79
2022/06/25 05:07:14;;;;;;;19.80;11.33;;;17.60;99.90;;;;;;5059077;28;20045;-80
2022/06/25 05:09:40;;;;;;;19.17;10.97;;;17.60;99.90;;;;;;5077007;28;20048;-77
2022/06/25 05:12:06;;;;;;;22.60;10.90;;;17.60;99.90;;;;;;5076676;28;20044;-80
2022/06/25 05:14:32;;;;;;;23.10;11.15;;;17.70;99.90;;;;;;5075903;28;20125;-79
2022/06/25 05:16:58;;;;;;;19.03;11.30;;;17.70;99.90;;;;;;5076989;28;20044;-82
2022/06/25 05:19:24;;;;;;;22.13;10.63;;;17.80;99.90;;;;;;5077760;28;20435;-81
2022/06/25 05:21:49;;;;;;;19.13;10.83;;;17.80;99.90;;;;;;5076200;28;20091;-81
2022/06/25 05:24:15;;;;;;;17.07;10.47;;;17.80;99.90;;;;;;5076749;28;20495;-84
2022/06/25 05:26:41;;;;;;;20.43;10.97;;;17.90;99.90;;;;;;5075509;28;20043;-79
2022/06/25 05:29:07;;;;;;;18.90;10.83;;;17.90;99.90;;;;;;5058601;28;20047;-79
2022/06/25 05:31:32;;;;;;;18.13;10.17;;;17.90;99.90;;;;;;5075168;28;20041;-81
2022/06/25 05:33:59;;;;;;;24.20;10.37;;;18.00;99.90;;;;;;5076266;28;20124;-79
2022/06/25 05:36:24;;;;;;;19.92;10.38;;;18.00;99.90;;;;;;5076212;28;20468;-77
2022/06/25 05:38:50;;;;;;;19.73;10.57;;;18.10;99.90;;;;;;5075577;28;20066;-79
2022/06/25 05:41:16;;;;;;;20.40;10.67;;;18.10;99.90;;;;;;5076520;28;20063;-77
2022/06/25 05:43:42;;;;;;;17.73;9.40;;;18.10;99.90;;;;;;5074292;28;20476;-81
2022/06/25 05:46:08;;;;;;;17.63;10.20;;;18.20;99.90;;;;;;5057687;28;20519;-79
2022/06/25 05:48:34;;;;;;;19.27;10.63;;;18.20;99.90;;;;;;5076653;28;20052;-80
2022/06/25 05:51:00;;;;;;;21.17;10.73;;;18.30;99.90;;;;;;5074973;28;20473;-80
2022/06/25 05:53:26;;;;;;;17.40;9.70;;;18.30;99.90;;;;;;5076883;28;20205;-78
2022/06/25 05:55:52;;;;;;;22.63;9.60;;;18.40;99.90;;;;;;5076935;28;20134;-79
2022/06/25 05:58:19;;;;;;;19.27;10.27;;;18.40;99.90;;;;;;5076498;28;20045;-78
2022/06/25 06:00:46;;;;;;;19.75;9.52;;;18.50;99.90;;;;;;5076886;28;20052;-79
2022/06/25 06:03:11;;;;;;;19.15;9.85;;;18.50;99.90;;;;;;5066578;28;20048;-78
2022/06/25 06:05:38;;;;;;;18.87;9.80;;;18.50;99.90;;;;;;5065492;28;20055;-79
2022/06/25 06:08:05;;;;;;;17.05;10.00;;;18.40;99.90;;;;;;5077377;28;20045;-82
2022/06/25 06:10:31;;;;;;;19.17;9.50;;;18.60;99.90;;;;;;5076738;28;20051;-79
2022/06/25 06:12:57;;;;;;;18.33;9.33;;;18.60;99.90;;;;;;5076019;28;20396;-78
2022/06/25 06:15:22;;;;;;;23.63;9.97;;;18.60;99.90;;;;;;5074818;28;20163;-80
2022/06/25 06:17:48;;;;;;;20.20;9.43;;;18.70;99.90;;;;;;5075056;28;20119;-80
2022/06/25 06:20:14;;;;;;;16.73;8.93;;;18.80;99.90;;;;;;5075371;28;20044;-81
2022/06/25 06:22:40;;;;;;;20.47;9.73;;;18.90;99.90;;;;;;5073420;28;20099;-80
2022/06/25 06:25:06;;;;;;;17.53;9.37;;;18.90;99.90;;;;;;5073869;28;20051;-80
2022/06/25 06:27:31;;;;;;;16.42;9.23;;;19.00;99.90;;;;;;5074674;28;20048;-79
2022/06/25 06:29:57;;;;;;;19.63;9.27;;;19.00;99.90;;;;;;5074782;28;20443;-80
2022/06/25 06:32:23;;;;;;;17.00;9.10;;;19.10;99.90;;;;;;5057218;28;20047;-79
2022/06/25 06:34:49;;;;;;;15.67;9.07;;;19.20;99.90;;;;;;5073483;28;20055;-78
2022/06/25 06:37:14;;;;;;;14.60;8.00;;;19.30;99.90;;;;;;5075634;28;20369;-81
2022/06/25 06:39:40;;;;;;;14.03;7.37;;;19.50;99.90;;;;;;5058458;28;20082;-78
2022/06/25 06:42:06;;;;;;;14.60;7.70;;;19.70;99.90;;;;;;5076718;28;20484;-77
2022/06/25 06:44:32;;;;;;;17.87;7.00;;;19.80;99.90;;;;;;5060051;28;20114;-79
2022/06/25 06:46:58;;;;;;;12.07;7.10;;;20.00;99.90;;;;;;5059413;28;20154;-81
2022/06/25 06:49:23;;;;;;;19.17;7.37;;;20.00;99.90;;;;;;5074243;28;20400;-76
2022/06/25 06:51:49;;;;;;;15.80;6.83;;;20.20;99.90;;;;;;5073570;28;20082;-80
2022/06/25 06:54:15;;;;;;;13.73;6.83;;;20.20;99.90;;;;;;5073725;28;20102;-79
2022/06/25 06:56:46;;;;;;;11.75;6.25;;;20.30;99.90;;;;;;5073624;28;20056;-79
2022/06/25 06:59:12;;;;;;;15.07;6.37;;;20.40;99.90;;;;;;5074948;28;20044;-77
2022/06/25 07:01:38;;;;;;;13.27;5.97;;;20.50;99.90;;;;;;5072896;28;20484;-79
2022/06/25 07:04:04;;;;;;;17.53;6.27;;;20.60;99.90;;;;;;5072718;28;20048;-79
2022/06/25 07:06:29;;;;;;;12.53;5.70;;;20.70;99.90;;;;;;5074961;28;20098;-78
2022/06/25 07:08:55;;;;;;;9.37;5.80;;;20.80;99.90;;;;;;5074052;28;20063;-75
2022/06/25 07:11:30;;;;;;;18.83;6.13;;;20.90;99.90;;;;;;5056483;28;20087;-80
2022/06/25 07:14:01;;;;;;;14.00;5.90;;;21.00;99.90;;;;;;5074507;28;20105;-79
2022/06/25 07:16:28;;;;;;;12.90;5.50;;;21.00;99.90;;;;;;5074706;28;20084;-80
2022/06/25 07:18:56;;;;;;;14.32;5.88;;;21.00;99.90;;;;;;5075470;28;20089;-75
2022/06/25 07:21:22;;;;;;;16.08;5.80;;;21.00;99.90;;;;;;5073224;28;20048;-80
2022/06/25 07:23:48;;;;;;;11.15;6.10;;;21.00;99.90;;;;;;5058538;28;20052;-79
2022/06/25 07:26:14;;;;;;;10.00;6.23;;;21.10;99.90;;;;;;5075186;28;20048;-80
2022/06/25 07:28:40;;;;;;;10.25;6.07;;;21.20;99.90;;;;;;5073745;28;20495;-76
2022/06/25 07:31:05;;;;;;;13.03;6.77;;;21.30;99.90;;;;;;5076673;28;20156;-79
2022/06/25 07:33:31;;;;;;;10.43;5.60;;;21.50;99.90;;;;;;5074088;28;20049;-80
2022/06/25 07:35:58;;;;;;;14.07;6.33;;;21.40;99.90;;;;;;5078592;28;20677;-80
2022/06/25 07:38:24;;;;;;;14.60;5.82;;;21.60;99.90;;;;;;5061643;28;20167;-81
2022/06/25 07:40:49;;;;;;;12.57;4.90;;;21.50;99.90;;;;;;5079000;28;20044;-80
2022/06/25 07:43:16;;;;;;;9.23;4.93;;;21.60;99.90;;;;;;5075484;28;20489;-80
2022/06/25 07:45:42;;;;;;;13.95;4.90;;;21.50;99.90;;;;;;5075008;28;20518;-81
2022/06/25 07:48:08;;;;;;;10.68;4.78;;;21.50;99.90;;;;;;5075947;28;20127;-82
2022/06/25 07:53:18;;;;;;;9.60;3.65;;;21.70;99.90;;;;;;5078142;28;20117;-81
2022/06/25 07:55:44;;;;;;;13.17;3.43;;;21.70;99.90;;;;;;5077813;28;20354;-82
2022/06/25 07:58:10;;;;;;;7.47;3.83;;;21.70;99.90;;;;;;5075924;28;20479;-80
2022/06/25 08:00:35;;;;;;;12.48;3.45;;;21.70;99.90;;;;;;5077839;28;20055;-80
2022/06/25 08:03:01;;;;;;;13.67;5.40;;;21.80;99.90;;;;;;5082011;28;20044;-81
2022/06/25 08:05:28;;;;;;;9.07;4.43;;;21.90;99.90;;;;;;5079036;28;20100;-80
2022/06/25 08:07:54;;;;;;;11.18;3.88;;;21.90;99.90;;;;;;5078273;28;20124;-81
2022/06/25 08:10:21;;;;;;;14.45;3.90;;;22.10;99.90;;;;;;5095525;28;20047;-81
2022/06/25 08:12:48;;;;;;;10.00;3.95;;;22.10;99.90;;;;;;5077786;28;20044;-82
2022/06/25 08:15:14;;;;;;;8.77;3.97;;;22.20;99.90;;;;;;5059648;28;20085;-82
2022/06/25 08:17:40;;;;;;;12.73;4.25;;;22.20;99.90;;;;;;5076767;28;20140;-73
2022/06/25 08:20:07;;;;;;;10.63;3.88;;;22.30;99.90;;;;;;5071814;28;20055;-74
2022/06/25 08:22:32;;;;;;;10.07;3.67;;;22.40;99.90;;;;;;5072498;28;20048;-74
2022/06/25 08:24:58;;;;;;;11.77;3.47;;;22.60;99.90;;;;;;5071786;28;20113;-85
2022/06/25 08:27:24;;;;;;;9.90;3.63;;;22.70;99.90;;;;;;5076541;28;20062;-81
2022/06/25 08:29:50;;;;;;;12.52;4.10;;;22.50;99.90;;;;;;5074834;28;20538;-71
2022/06/25 08:32:16;;;;;;;12.30;3.67;;;22.60;99.90;;;;;;5072961;28;20045;-74
2022/06/25 08:34:42;;;;;;;10.70;4.20;;;22.70;99.90;;;;;;5108641;28;20299;-77
2022/06/25 08:37:07;;;;;;;9.43;3.70;;;22.70;99.90;;;;;;5074092;28;20040;-81
2022/06/25 08:39:33;;;;;;;9.33;3.97;;;22.50;99.90;;;;;;5076910;28;20044;-80
2022/06/25 08:42:03;;;;;;;7.60;4.10;;;22.40;99.90;;;;;;5109937;28;20056;-79
2022/06/25 08:44:30;;;;;;;8.63;4.47;;;22.50;99.90;;;;;;5075304;28;20415;-80
2022/06/25 08:46:56;;;;;;;;;;;22.60;99.90;;;;;;5074210;28;20084;-82
2022/06/25 08:49:23;;;;;;;8.48;3.97;;;22.90;99.90;;;;;;5060336;28;19983;-81
2022/06/25 08:51:51;;;;;;;11.38;3.78;;;23.00;99.90;;;;;;5077875;28;20084;-81
2022/06/25 08:54:17;;;;;;;7.97;3.58;;;23.10;99.90;;;;;;5112560;28;20052;-77
2022/06/25 08:56:43;;;;;;;10.73;3.92;;;23.30;99.90;;;;;;5079945;28;20084;-79
2022/06/25 08:59:08;;;;;;;10.23;3.93;;;23.40;99.90;;;;;;5080979;28;20052;-78
2022/06/25 09:01:34;;;;;;;13.37;3.83;;;23.50;99.90;;;;;;5081558;28;20290;-79
2022/06/25 09:04:00;;;;;;;9.87;3.60;;;23.60;99.90;;;;;;5083482;28;20048;-78
2022/06/25 09:06:26;;;;;;;9.53;3.87;;;23.80;99.90;;;;;;5079700;28;20080;-75
2022/06/25 09:09:12;;;;;;;8.10;3.83;;;24.00;99.90;;;;;;5075217;28;20045;-76
2022/06/25 09:12:11;;;;;;;11.63;3.70;;;24.10;99.90;;;;;;5073948;28;20040;-76
2022/06/25 09:14:37;;;;;;;10.27;2.85;;;24.10;99.90;;;;;;5083587;28;20058;-78
2022/06/25 09:17:09;;;;;;;6.90;2.30;;;24.50;99.90;;;;;;5074914;28;20146;-77
2022/06/25 09:19:40;;;;;;;5.63;2.65;;;24.70;99.90;;;;;;5075473;28;20047;-80
2022/06/25 09:22:11;;;;;;;10.05;2.58;;;24.70;99.90;;;;;;5073449;28;20518;-80
2022/06/25 09:24:42;;;;;;;6.75;2.72;;;24.40;99.90;;;;;;5075251;28;20079;-80
2022/06/25 09:27:07;;;;;;;7.53;2.50;;;24.50;99.90;;;;;;5072387;28;20046;-78
2022/06/25 09:29:40;;;;;;;7.17;2.50;;;24.40;99.90;;;;;;5071370;28;20045;-78
2022/06/25 09:32:06;;;;;;;13.45;2.63;;;24.40;99.90;;;;;;5071719;28;20421;-75
2022/06/25 09:34:34;;;;;;;9.13;2.20;;;24.30;99.90;;;;;;5073584;28;20037;-78
2022/06/25 09:37:22;;;;;;;8.77;2.35;;;24.30;99.90;;;;;;5075498;28;20045;-78
2022/06/25 09:39:49;;;;;;;9.20;2.13;;;24.20;99.90;;;;;;5109120;28;20098;-76
2022/06/25 09:42:21;;;;;;;8.57;2.20;;;24.30;99.90;;;;;;5075604;28;20044;-76
2022/06/25 09:44:47;;;;;;;7.35;2.70;;;24.50;99.90;;;;;;5076453;28;20139;-79
2022/06/25 09:47:16;;;;;;;;;;;24.60;99.90;;;;;;5078516;28;20044;-78
2022/06/25 09:49:42;;;;;;;8.18;2.13;;;24.70;99.90;;;;;;5075670;28;19989;-77
2022/06/25 09:52:08;;;;;;;9.32;2.60;;;24.70;99.90;;;;;;5075516;28;20055;-77
2022/06/25 09:54:34;;;;;;;8.05;3.08;;;24.90;99.90;;;;;;5076489;28;20049;-77
2022/06/25 09:57:01;;;;;;;11.87;2.67;;;24.90;99.90;;;;;;5060437;28;20051;-76
2022/06/25 09:59:31;;;;;;;;;;;25.00;99.90;;;;;;5076752;28;20131;-79
2022/06/25 10:02:02;;;;;;;9.00;3.08;;;25.20;99.90;;;;;;5076346;28;20394;-79
2022/06/25 10:04:30;;;;;;;8.00;2.53;;;25.50;99.40;;;;;;5059698;28;20048;-74
2022/06/25 10:06:58;;;;;;;6.85;2.53;;;25.50;98.80;;;;;;5059017;28;20044;-80
2022/06/25 10:09:28;;;;;;;8.00;2.60;;;25.30;99.10;;;;;;5076477;28;20041;-78
2022/06/25 10:11:54;;;;;;;12.95;3.92;;;25.30;98.80;;;;;;5059348;28;20131;-79
2022/06/25 10:14:20;;;;;;;11.85;2.20;;;25.40;98.40;;;;;;5077372;28;20456;-76
2022/06/25 10:16:47;;;;;;;10.02;2.65;;;25.50;98.60;;;;;;5077817;28;20040;-79
2022/06/25 10:19:16;;;;;;;7.68;2.30;;;25.80;98.60;;;;;;5060595;28;20068;-79
2022/06/25 10:21:42;;;;;;;9.10;2.40;;;26.20;98.20;;;;;;5076039;28;20102;-79
2022/06/25 10:24:09;;;;;;;7.68;2.58;;;26.30;97.50;;;;;;5076043;28;20056;-78
2022/06/25 10:26:36;;;;;;;5.28;1.85;;;26.40;97.70;;;;;;5078313;28;20100;-77
2022/06/25 10:29:22;;;;;;;8.40;1.80;;;26.30;95.20;;;;;;5078906;28;20127;-79
2022/06/25 10:32:10;;;;;;;5.78;2.20;;;26.40;95.60;;;;;;5078797;28;20048;-79
2022/06/25 10:34:36;;;;;;;8.98;2.15;;;26.40;94.90;;;;;;5060175;28;20048;-75
2022/06/25 10:37:02;;;;;;;6.43;2.22;;;26.30;95.50;;;;;;5077614;28;20036;-75
2022/06/25 10:39:28;;;;;;;7.00;2.30;;;26.30;95.30;;;;;;5078423;28;20426;-77
2022/06/25 10:45:14;;;;;;;5.60;2.10;;;26.40;94.60;;;;;;5078487;28;20395;-78
2022/06/25 10:47:59;;;;;;;8.20;2.42;;;26.50;93.80;;;;;;5078600;28;20535;-79
2022/06/25 10:50:31;;;;;;;4.67;2.00;;;26.40;93.50;;;;;;5079730;28;20084;-78
2022/06/25 10:53:17;;;;;;;9.70;2.42;;;26.20;93.70;;;;;;5075777;28;20444;-78
2022/06/25 10:55:49;;;;;;;8.27;2.30;;;25.80;92.80;;;;;;5078421;28;20041;-76
2022/06/25 10:58:40;;;;;;;7.18;2.40;;;26.00;94.30;;;;;;5109929;28;20052;-79
2022/06/25 11:01:16;;;;;;;6.82;1.98;;;26.20;94.10;;;;;;5077482;28;20079;-78
2022/06/25 11:03:42;;;;;;;;;;;26.70;93.30;;;;;;5076427;28;20127;-78
2022/06/25 11:06:19;;;;;;;6.50;1.90;;;26.70;92.50;;;;;;5075420;28;20363;-75
2022/06/25 11:08:45;;;;;;;;;;;26.60;92.60;;;;;;5074911;28;20044;-77
2022/06/25 11:11:12;;;;;;;8.00;2.20;;;26.60;92.90;;;;;;5075898;28;19920;-80
2022/06/25 11:13:41;;;;;;;8.85;2.35;;;26.40;92.40;;;;;;5076129;28;20049;-78
2022/06/25 11:16:15;;;;;;;5.90;2.00;;;26.30;92.40;;;;;;5077711;28;20041;-76
2022/06/25 11:18:49;;;;;;;5.43;2.15;;;26.40;92.30;;;;;;5077880;28;20052;-80
2022/06/25 11:21:35;;;;;;;7.95;2.13;;;26.30;92.00;;;;;;5058888;28;20048;-79
2022/06/25 11:24:05;;;;;;;7.45;2.40;;;26.30;90.90;;;;;;5080037;28;20049;-80
2022/06/25 11:29:24;;;;;;;12.65;2.38;;;25.90;92.70;;;;;;5079277;28;20151;-79
2022/06/25 11:31:52;;;;;;;6.85;2.55;;;25.90;92.20;;;;;;5060221;28;20088;-79
2022/06/25 11:34:23;;;;;;;6.55;2.10;;;25.60;92.20;;;;;;5076897;28;20059;-78
2022/06/25 11:37:04;;;;;;;5.90;2.13;;;25.50;93.00;;;;;;5079456;28;20041;-78
2022/06/25 11:39:30;;;;;;;6.93;2.20;;;25.50;92.40;;;;;;5080538;28;20044;-78
2022/06/25 11:41:56;;;;;;;;;;;25.50;93.10;;;;;;5081566;28;20044;-79
2022/06/25 11:44:22;;;;;;;;;;;25.30;93.60;;;;;;5062402;28;20012;-75
2022/06/25 11:46:49;;;;;;;5.95;1.98;;;25.50;93.60;;;;;;5058915;28;19975;-78
2022/06/25 11:49:16;;;;;;;6.03;2.20;;;25.50;92.80;;;;;;5058338;28;20127;-78
2022/06/25 11:51:51;;;;;;;4.82;1.63;;;25.60;93.00;;;;;;5074856;28;20103;-82
2022/06/25 11:54:21;;;;;;;8.70;2.38;;;25.60;93.20;;;;;;5074475;28;20110;-81
2022/06/25 11:56:50;;;;;;;6.68;2.15;;;25.90;93.00;;;;;;5081345;28;20045;-79
2022/06/25 11:59:28;;;;;;;12.77;2.25;;;26.10;92.90;;;;;;5049372;28;20051;-79
2022/06/25 12:01:55;;;;;;;5.07;2.30;;;26.00;93.10;;;;;;5079470;28;20044;-81
2022/06/25 12:04:23;;;;;;;8.02;2.30;;;26.00;93.00;;;;;;5076996;28;20472;-79
2022/06/25 12:06:49;;;;;;;6.93;2.20;;;25.90;92.90;;;;;;5075507;28;20041;-78
2022/06/25 12:09:19;;;;;;;9.55;2.42;;;25.80;92.80;;;;;;5074013;28;20064;-75
2022/06/25 12:11:52;;;;;;;5.38;2.00;;;25.70;92.80;;;;;;5073808;28;20080;-81
2022/06/25 12:14:26;;;;;;;7.97;2.25;;;25.60;92.60;;;;;;5075376;28;20502;-80
2022/06/25 12:16:53;;;;;;;4.78;1.85;;;25.40;92.70;;;;;;5073254;28;20521;-80
2022/06/25 12:19:19;;;;;;;6.50;2.42;;;25.10;92.90;;;;;;5074396;28;20055;-78
2022/06/25 12:21:47;;;;;;;8.93;2.20;;;25.00;93.70;;;;;;5072924;28;20458;-80
2022/06/25 12:24:19;;;;;;;6.43;2.50;;;25.00;93.50;;;;;;5058293;28;20469;-78
2022/06/25 12:26:52;;;;;;;11.20;2.20;;;24.80;93.40;;;;;;5072869;28;20048;-78
2022/06/25 12:29:22;;;;;;;4.80;2.70;;;24.60;93.90;;;;;;5056571;28;20056;-78
2022/06/25 12:31:54;;;;;;;6.07;2.70;;;24.40;94.30;;;;;;5074492;28;20084;-80
2022/06/25 12:34:20;;;;;;;8.55;2.83;;;24.30;94.60;;;;;;5073081;28;20052;-76
2022/06/25 12:36:48;;;;;;;7.95;2.80;;;24.20;94.90;;;;;;5072393;28;20064;-78
2022/06/25 12:39:31;;;;;;;7.90;3.17;;;24.30;95.10;;;;;;5073988;28;20049;-80
2022/06/25 12:42:02;;;;;;;9.45;3.50;;;24.20;95.80;;;;;;5057553;28;20441;-76
2022/06/25 12:44:32;;;;;;;7.40;3.40;;;24.20;95.70;;;;;;5055431;28;20178;-77
2022/06/25 12:47:09;;;;;;;7.38;3.25;;;24.00;96.70;;;;;;5072044;28;20060;-79
2022/06/25 12:49:47;;;;;;;7.28;3.42;;;24.00;96.80;;;;;;5073776;28;20064;-78
2022/06/25 12:52:17;;;;;;;8.93;3.60;;;24.00;96.70;;;;;;5080287;28;20374;-79
2022/06/25 12:54:54;;;;;;;9.38;3.88;;;24.00;96.70;;;;;;5081226;28;20056;-79